sensor_id;sensor_type;location;lat;lon;timestamp;temperature;humidity
30063;DHT22;16889;67.864;24.990;2024-01-10T00:03:49;-6.40;99.90
30063;DHT22;16889;67.864;24.990;2024-01-10T00:08:35;-6.10;99.90
30063;DHT22;16889;67.864;24.990;2024-01-10T00:13:21;-5.80;99.90
30063;DHT22;16889;67.864;24.990;2024-01-10T00:18:08;-5.70;99.90
30063;DHT22;16889;67.864;24.990;2024-01-10T00:22:54;-5.30;99.90
30063;DHT22;16889;67.864;24.990;2024-01-10T00:27:40;-4.90;99.90
30063;DHT22;16889;67.864;24.990;2024-01-10T00:32:26;-4.70;99.90
30063;DHT22;16889;67.864;24.990;2024-01-10T00:37:11;-4.30;99.90
30063;DHT22;16889;67.864;24.990;2024-01-10T00:41:57;-4.10;99.90
30063;DHT22;16889;67.864;24.990;2024-01-10T00:46:43;-3.90;99.90
30063;DHT22;16889;67.864;24.990;2024-01-10T00:51:29;-3.60;99.90
30063;DHT22;16889;67.864;24.990;2024-01-10T00:56:15;-3.40;99.90
30063;DHT22;16889;67.864;24.990;2024-01-10T01:01:01;-3.10;99.90
30063;DHT22;16889;67.864;24.990;2024-01-10T01:05:47;-3.00;99.90
30063;DHT22;16889;67.864;24.990;2024-01-10T01:10:34;-2.90;99.90
30063;DHT22;16889;67.864;24.990;2024-01-10T01:15:20;-2.80;99.90
30063;DHT22;16889;67.864;24.990;2024-01-10T01:20:06;-2.70;99.90
30063;DHT22;16889;67.864;24.990;2024-01-10T01:24:52;-2.70;99.90
30063;DHT22;16889;67.864;24.990;2024-01-10T01:29:38;-2.60;99.90
30063;DHT22;16889;67.864;24.990;2024-01-10T01:34:24;-2.40;99.90
30063;DHT22;16889;67.864;24.990;2024-01-10T01:39:10;-2.30;99.90
30063;DHT22;16889;67.864;24.990;2024-01-10T01:43:59;-2.10;99.90
30063;DHT22;16889;67.864;24.990;2024-01-10T01:48:45;-2.10;99.90
30063;DHT22;16889;67.864;24.990;2024-01-10T01:53:34;-2.00;99.90
30063;DHT22;16889;67.864;24.990;2024-01-10T01:58:22;-1.90;99.90
30063;DHT22;16889;67.864;24.990;2024-01-10T02:03:09;-1.90;99.90
30063;DHT22;16889;67.864;24.990;2024-01-10T02:07:55;-1.80;99.90
30063;DHT22;16889;67.864;24.990;2024-01-10T02:12:41;-1.70;99.90
30063;DHT22;16889;67.864;24.990;2024-01-10T02:17:27;-1.60;99.90
30063;DHT22;16889;67.864;24.990;2024-01-10T02:22:13;-1.60;99.90
30063;DHT22;16889;67.864;24.990;2024-01-10T02:26:59;-1.50;99.90
30063;DHT22;16889;67.864;24.990;2024-01-10T02:31:45;-1.40;99.90
30063;DHT22;16889;67.864;24.990;2024-01-10T02:36:31;-1.30;99.90
30063;DHT22;16889;67.864;24.990;2024-01-10T02:41:16;-1.30;99.90
30063;DHT22;16889;67.864;24.990;2024-01-10T02:46:02;-1.30;99.90
30063;DHT22;16889;67.864;24.990;2024-01-10T02:50:48;-1.20;99.90
30063;DHT22;16889;67.864;24.990;2024-01-10T02:55:35;-1.20;99.90
30063;DHT22;16889;67.864;24.990;2024-01-10T03:00:21;-1.20;99.90
30063;DHT22;16889;67.864;24.990;2024-01-10T03:05:07;-1.20;99.90
30063;DHT22;16889;67.864;24.990;2024-01-10T03:09:53;-1.30;99.90
30063;DHT22;16889;67.864;24.990;2024-01-10T03:14:39;-1.40;99.90
30063;DHT22;16889;67.864;24.990;2024-01-10T03:19:25;-1.30;99.90
30063;DHT22;16889;67.864;24.990;2024-01-10T03:24:11;-1.30;99.90
30063;DHT22;16889;67.864;24.990;2024-01-10T03:28:57;-1.20;99.90
30063;DHT22;16889;67.864;24.990;2024-01-10T03:33:44;-1.20;99.90
30063;DHT22;16889;67.864;24.990;2024-01-10T03:38:29;-1.20;99.90
30063;DHT22;16889;67.864;24.990;2024-01-10T03:43:15;-1.20;99.90
30063;DHT22;16889;67.864;24.990;2024-01-10T03:48:02;-1.20;99.90
30063;DHT22;16889;67.864;24.990;2024-01-10T03:52:48;-1.20;99.90
30063;DHT22;16889;67.864;24.990;2024-01-10T03:57:34;-1.20;99.90
30063;DHT22;16889;67.864;24.990;2024-01-10T04:02:20;-1.30;99.90
30063;DHT22;16889;67.864;24.990;2024-01-10T04:07:06;-1.40;99.90
30063;DHT22;16889;67.864;24.990;2024-01-10T04:11:52;-1.30;99.90
30063;DHT22;16889;67.864;24.990;2024-01-10T04:16:38;-1.20;99.90
30063;DHT22;16889;67.864;24.990;2024-01-10T04:21:24;-1.20;99.90
30063;DHT22;16889;67.864;24.990;2024-01-10T04:26:10;-1.20;99.90
30063;DHT22;16889;67.864;24.990;2024-01-10T04:30:56;-1.10;99.90
30063;DHT22;16889;67.864;24.990;2024-01-10T04:35:42;-1.00;99.90
30063;DHT22;16889;67.864;24.990;2024-01-10T04:40:28;-1.00;99.90
30063;DHT22;16889;67.864;24.990;2024-01-10T04:45:14;-1.00;99.90
30063;DHT22;16889;67.864;24.990;2024-01-10T04:50:00;-1.00;99.90
30063;DHT22;16889;67.864;24.990;2024-01-10T04:54:45;-0.90;99.90
30063;DHT22;16889;67.864;24.990;2024-01-10T04:59:33;-0.80;99.90
30063;DHT22;16889;67.864;24.990;2024-01-10T05:04:19;-0.80;99.90
30063;DHT22;16889;67.864;24.990;2024-01-10T05:09:05;-0.80;99.90
30063;DHT22;16889;67.864;24.990;2024-01-10T05:13:52;-0.80;99.90
30063;DHT22;16889;67.864;24.990;2024-01-10T05:18:38;-0.80;99.90
30063;DHT22;16889;67.864;24.990;2024-01-10T05:23:24;-0.70;99.90
30063;DHT22;16889;67.864;24.990;2024-01-10T05:28:10;-0.70;99.90
30063;DHT22;16889;67.864;24.990;2024-01-10T05:32:56;-0.70;99.90
30063;DHT22;16889;67.864;24.990;2024-01-10T05:37:42;-0.70;99.90
30063;DHT22;16889;67.864;24.990;2024-01-10T05:42:28;-0.60;99.90
30063;DHT22;16889;67.864;24.990;2024-01-10T05:47:13;-0.60;99.90
30063;DHT22;16889;67.864;24.990;2024-01-10T05:51:59;-0.60;99.90
30063;DHT22;16889;67.864;24.990;2024-01-10T05:56:45;-0.50;99.90
30063;DHT22;16889;67.864;24.990;2024-01-10T06:01:31;-0.50;99.90
30063;DHT22;16889;67.864;24.990;2024-01-10T06:06:17;-0.40;99.90
30063;DHT22;16889;67.864;24.990;2024-01-10T06:11:04;-0.50;99.90
30063;DHT22;16889;67.864;24.990;2024-01-10T06:15:54;-0.40;99.90
30063;DHT22;16889;67.864;24.990;2024-01-10T06:20:40;-0.40;99.90
30063;DHT22;16889;67.864;24.990;2024-01-10T06:25:26;-0.30;99.90
30063;DHT22;16889;67.864;24.990;2024-01-10T06:30:13;-0.30;99.90
30063;DHT22;16889;67.864;24.990;2024-01-10T06:34:59;-0.10;99.90
30063;DHT22;16889;67.864;24.990;2024-01-10T06:39:46;-0.10;99.90
30063;DHT22;16889;67.864;24.990;2024-01-10T06:44:32;-0.10;99.90
30063;DHT22;16889;67.864;24.990;2024-01-10T06:49:19;0.00;99.90
30063;DHT22;16889;67.864;24.990;2024-01-10T06:54:05;-0.10;99.90
30063;DHT22;16889;67.864;24.990;2024-01-10T06:58:51;0.00;99.90
30063;DHT22;16889;67.864;24.990;2024-01-10T07:03:37;-0.10;99.90
30063;DHT22;16889;67.864;24.990;2024-01-10T07:08:24;0.00;99.90
30063;DHT22;16889;67.864;24.990;2024-01-10T07:13:10;0.00;99.90
30063;DHT22;16889;67.864;24.990;2024-01-10T07:17:56;0.00;99.90
30063;DHT22;16889;67.864;24.990;2024-01-10T07:22:42;0.00;99.90
30063;DHT22;16889;67.864;24.990;2024-01-10T07:27:29;0.10;99.90
30063;DHT22;16889;67.864;24.990;2024-01-10T07:32:15;0.10;99.90
30063;DHT22;16889;67.864;24.990;2024-01-10T07:37:01;0.10;99.90
30063;DHT22;16889;67.864;24.990;2024-01-10T07:41:48;0.20;99.90
30063;DHT22;16889;67.864;24.990;2024-01-10T07:46:36;0.20;99.90
30063;DHT22;16889;67.864;24.990;2024-01-10T07:51:24;0.20;99.90
30063;DHT22;16889;67.864;24.990;2024-01-10T07:56:10;0.20;99.90
30063;DHT22;16889;67.864;24.990;2024-01-10T08:00:58;0.20;99.90
30063;DHT22;16889;67.864;24.990;2024-01-10T08:05:44;0.20;99.90
30063;DHT22;16889;67.864;24.990;2024-01-10T08:10:30;0.20;99.90
30063;DHT22;16889;67.864;24.990;2024-01-10T08:15:16;0.10;99.90
30063;DHT22;16889;67.864;24.990;2024-01-10T08:20:03;0.10;99.90
30063;DHT22;16889;67.864;24.990;2024-01-10T08:24:49;0.00;99.90
30063;DHT22;16889;67.864;24.990;2024-01-10T08:29:35;0.00;99.90
30063;DHT22;16889;67.864;24.990;2024-01-10T08:34:21;-0.10;99.90
30063;DHT22;16889;67.864;24.990;2024-01-10T08:39:07;-0.20;99.90
30063;DHT22;16889;67.864;24.990;2024-01-10T08:43:53;-0.20;99.90
30063;DHT22;16889;67.864;24.990;2024-01-10T08:48:39;-0.30;99.90
30063;DHT22;16889;67.864;24.990;2024-01-10T08:53:25;-0.40;99.90
30063;DHT22;16889;67.864;24.990;2024-01-10T08:58:11;-0.40;99.90
30063;DHT22;16889;67.864;24.990;2024-01-10T09:02:57;-0.50;99.90
30063;DHT22;16889;67.864;24.990;2024-01-10T09:07:43;-0.50;99.90
30063;DHT22;16889;67.864;24.990;2024-01-10T09:12:29;-0.60;99.90
30063;DHT22;16889;67.864;24.990;2024-01-10T09:17:14;-0.60;99.90
30063;DHT22;16889;67.864;24.990;2024-01-10T09:22:00;-0.50;99.90
30063;DHT22;16889;67.864;24.990;2024-01-10T09:26:47;-0.50;99.90
30063;DHT22;16889;67.864;24.990;2024-01-10T09:31:33;-0.60;99.90
30063;DHT22;16889;67.864;24.990;2024-01-10T09:36:19;-0.50;99.90
30063;DHT22;16889;67.864;24.990;2024-01-10T09:41:05;-0.50;99.90
30063;DHT22;16889;67.864;24.990;2024-01-10T09:45:52;-0.50;99.90
30063;DHT22;16889;67.864;24.990;2024-01-10T09:50:40;-0.40;99.90
30063;DHT22;16889;67.864;24.990;2024-01-10T09:55:29;-0.30;99.90
30063;DHT22;16889;67.864;24.990;2024-01-10T10:00:17;-0.30;99.90
30063;DHT22;16889;67.864;24.990;2024-01-10T10:05:07;-0.20;99.90
30063;DHT22;16889;67.864;24.990;2024-01-10T10:09:54;-0.10;99.90
30063;DHT22;16889;67.864;24.990;2024-01-10T10:14:42;0.00;99.90
30063;DHT22;16889;67.864;24.990;2024-01-10T10:19:28;0.10;99.90
30063;DHT22;16889;67.864;24.990;2024-01-10T10:24:14;0.10;99.90
30063;DHT22;16889;67.864;24.990;2024-01-10T10:29:00;0.30;99.90
30063;DHT22;16889;67.864;24.990;2024-01-10T10:33:48;0.70;99.90
30063;DHT22;16889;67.864;24.990;2024-01-10T10:38:38;0.90;99.90
30063;DHT22;16889;67.864;24.990;2024-01-10T10:43:24;1.00;99.90
30063;DHT22;16889;67.864;24.990;2024-01-10T10:48:12;1.00;99.90
30063;DHT22;16889;67.864;24.990;2024-01-10T10:53:02;1.00;99.90
30063;DHT22;16889;67.864;24.990;2024-01-10T10:57:49;1.00;99.90
30063;DHT22;16889;67.864;24.990;2024-01-10T11:02:35;0.90;99.90
30063;DHT22;16889;67.864;24.990;2024-01-10T11:07:23;1.00;99.90
30063;DHT22;16889;67.864;24.990;2024-01-10T11:17:12;0.90;99.90
30063;DHT22;16889;67.864;24.990;2024-01-10T11:22:35;0.90;99.90
30063;DHT22;16889;67.864;24.990;2024-01-10T11:27:26;0.90;99.90
30063;DHT22;16889;67.864;24.990;2024-01-10T11:32:13;0.90;99.90
30063;DHT22;16889;67.864;24.990;2024-01-10T11:37:12;0.90;99.90
30063;DHT22;16889;67.864;24.990;2024-01-10T11:41:58;0.90;99.90
30063;DHT22;16889;67.864;24.990;2024-01-10T11:46:49;0.90;99.90
30063;DHT22;16889;67.864;24.990;2024-01-10T11:51:36;0.90;99.90
30063;DHT22;16889;67.864;24.990;2024-01-10T11:56:22;0.90;99.90
30063;DHT22;16889;67.864;24.990;2024-01-10T12:01:08;0.70;99.90
30063;DHT22;16889;67.864;24.990;2024-01-10T12:05:54;0.70;99.90
30063;DHT22;16889;67.864;24.990;2024-01-10T12:10:40;0.60;99.90
30063;DHT22;16889;67.864;24.990;2024-01-10T12:15:26;0.50;99.90
30063;DHT22;16889;67.864;24.990;2024-01-10T12:20:12;0.40;99.90
30063;DHT22;16889;67.864;24.990;2024-01-10T12:25:04;0.40;99.90
30063;DHT22;16889;67.864;24.990;2024-01-10T12:29:51;0.40;99.90
30063;DHT22;16889;67.864;24.990;2024-01-10T12:34:38;0.30;99.90
30063;DHT22;16889;67.864;24.990;2024-01-10T12:39:25;0.40;99.90
30063;DHT22;16889;67.864;24.990;2024-01-10T12:44:16;0.40;99.90
30063;DHT22;16889;67.864;24.990;2024-01-10T12:49:04;0.30;99.90
30063;DHT22;16889;67.864;24.990;2024-01-10T12:53:50;0.30;99.90
30063;DHT22;16889;67.864;24.990;2024-01-10T12:58:37;0.20;99.90
30063;DHT22;16889;67.864;24.990;2024-01-10T13:03:24;0.20;99.90
30063;DHT22;16889;67.864;24.990;2024-01-10T13:08:10;0.20;99.90
30063;DHT22;16889;67.864;24.990;2024-01-10T13:12:57;0.10;99.90
30063;DHT22;16889;67.864;24.990;2024-01-10T13:17:43;0.10;99.90
30063;DHT22;16889;67.864;24.990;2024-01-10T13:22:29;0.10;99.90
30063;DHT22;16889;67.864;24.990;2024-01-10T13:27:15;0.20;99.90
30063;DHT22;16889;67.864;24.990;2024-01-10T13:32:01;0.20;99.90
30063;DHT22;16889;67.864;24.990;2024-01-10T13:36:47;0.10;99.90
30063;DHT22;16889;67.864;24.990;2024-01-10T13:41:33;0.10;99.90
30063;DHT22;16889;67.864;24.990;2024-01-10T13:46:19;0.00;99.90
30063;DHT22;16889;67.864;24.990;2024-01-10T13:51:05;0.00;99.90
30063;DHT22;16889;67.864;24.990;2024-01-10T13:55:51;0.00;99.90
30063;DHT22;16889;67.864;24.990;2024-01-10T14:00:37;0.00;99.90
30063;DHT22;16889;67.864;24.990;2024-01-10T14:05:27;0.00;99.90
30063;DHT22;16889;67.864;24.990;2024-01-10T14:10:13;0.00;99.90
30063;DHT22;16889;67.864;24.990;2024-01-10T14:14:59;-0.10;99.90
30063;DHT22;16889;67.864;24.990;2024-01-10T14:19:45;-0.10;99.90
30063;DHT22;16889;67.864;24.990;2024-01-10T14:24:32;-0.10;99.90
30063;DHT22;16889;67.864;24.990;2024-01-10T14:29:19;-0.10;99.90
30063;DHT22;16889;67.864;24.990;2024-01-10T14:34:05;-0.20;99.90
30063;DHT22;16889;67.864;24.990;2024-01-10T14:38:51;-0.30;99.90
30063;DHT22;16889;67.864;24.990;2024-01-10T14:43:37;-0.40;99.90
30063;DHT22;16889;67.864;24.990;2024-01-10T14:48:23;-0.40;99.90
30063;DHT22;16889;67.864;24.990;2024-01-10T14:53:09;-0.40;99.90
30063;DHT22;16889;67.864;24.990;2024-01-10T14:57:55;-0.40;99.90
30063;DHT22;16889;67.864;24.990;2024-01-10T15:02:41;-0.30;99.90
30063;DHT22;16889;67.864;24.990;2024-01-10T15:07:27;-0.20;99.90
30063;DHT22;16889;67.864;24.990;2024-01-10T15:12:13;0.00;99.90
30063;DHT22;16889;67.864;24.990;2024-01-10T15:16:59;-0.10;99.90
30063;DHT22;16889;67.864;24.990;2024-01-10T15:21:46;-0.50;99.90
30063;DHT22;16889;67.864;24.990;2024-01-10T15:26:33;-0.90;99.90
30063;DHT22;16889;67.864;24.990;2024-01-10T15:31:19;-1.30;99.90
30063;DHT22;16889;67.864;24.990;2024-01-10T15:36:05;-1.60;99.90
30063;DHT22;16889;67.864;24.990;2024-01-10T15:40:51;-1.80;99.90
30063;DHT22;16889;67.864;24.990;2024-01-10T15:45:37;-2.00;99.90
30063;DHT22;16889;67.864;24.990;2024-01-10T15:50:23;-2.20;99.90
30063;DHT22;16889;67.864;24.990;2024-01-10T15:55:09;-2.40;99.90
30063;DHT22;16889;67.864;24.990;2024-01-10T15:59:55;-2.50;99.90
30063;DHT22;16889;67.864;24.990;2024-01-10T16:04:42;-2.50;99.90
30063;DHT22;16889;67.864;24.990;2024-01-10T16:09:28;-2.60;99.90
30063;DHT22;16889;67.864;24.990;2024-01-10T16:14:14;-2.70;99.90
30063;DHT22;16889;67.864;24.990;2024-01-10T16:19:00;-2.70;99.90
30063;DHT22;16889;67.864;24.990;2024-01-10T16:23:45;-2.80;99.90
30063;DHT22;16889;67.864;24.990;2024-01-10T16:28:31;-2.90;99.90
30063;DHT22;16889;67.864;24.990;2024-01-10T16:33:17;-3.00;99.90
30063;DHT22;16889;67.864;24.990;2024-01-10T16:38:03;-3.20;99.90
30063;DHT22;16889;67.864;24.990;2024-01-10T16:42:49;-3.40;99.90
30063;DHT22;16889;67.864;24.990;2024-01-10T16:47:35;-3.50;99.90
30063;DHT22;16889;67.864;24.990;2024-01-10T16:52:21;-3.70;99.90
30063;DHT22;16889;67.864;24.990;2024-01-10T16:57:07;-3.90;99.90
30063;DHT22;16889;67.864;24.990;2024-01-10T17:01:53;-4.10;99.90
30063;DHT22;16889;67.864;24.990;2024-01-10T17:06:40;-4.20;99.90
30063;DHT22;16889;67.864;24.990;2024-01-10T17:11:26;-4.20;99.90
30063;DHT22;16889;67.864;24.990;2024-01-10T17:16:12;-4.30;99.90
30063;DHT22;16889;67.864;24.990;2024-01-10T17:20:58;-4.20;99.90
30063;DHT22;16889;67.864;24.990;2024-01-10T17:25:44;-4.30;99.90
30063;DHT22;16889;67.864;24.990;2024-01-10T17:30:30;-4.30;99.90
30063;DHT22;16889;67.864;24.990;2024-01-10T17:35:17;-4.30;99.90
30063;DHT22;16889;67.864;24.990;2024-01-10T17:40:04;-4.30;99.90
30063;DHT22;16889;67.864;24.990;2024-01-10T17:44:50;-4.20;99.90
30063;DHT22;16889;67.864;24.990;2024-01-10T17:49:40;-4.30;99.90
30063;DHT22;16889;67.864;24.990;2024-01-10T17:54:26;-4.30;99.90
30063;DHT22;16889;67.864;24.990;2024-01-10T17:59:11;-4.30;99.90
30063;DHT22;16889;67.864;24.990;2024-01-10T18:03:57;-4.30;99.90
30063;DHT22;16889;67.864;24.990;2024-01-10T18:08:43;-4.30;99.90
30063;DHT22;16889;67.864;24.990;2024-01-10T18:13:29;-4.30;99.90
30063;DHT22;16889;67.864;24.990;2024-01-10T18:18:15;-4.20;99.90
30063;DHT22;16889;67.864;24.990;2024-01-10T18:23:01;-4.30;99.90
30063;DHT22;16889;67.864;24.990;2024-01-10T18:27:47;-4.20;99.90
30063;DHT22;16889;67.864;24.990;2024-01-10T18:32:33;-4.20;99.90
30063;DHT22;16889;67.864;24.990;2024-01-10T18:37:19;-4.40;99.90
30063;DHT22;16889;67.864;24.990;2024-01-10T18:42:05;-4.40;99.90
30063;DHT22;16889;67.864;24.990;2024-01-10T18:46:51;-4.50;99.90
30063;DHT22;16889;67.864;24.990;2024-01-10T18:51:37;-4.40;99.90
30063;DHT22;16889;67.864;24.990;2024-01-10T18:56:23;-4.70;99.90
30063;DHT22;16889;67.864;24.990;2024-01-10T19:01:09;-4.90;99.90
30063;DHT22;16889;67.864;24.990;2024-01-10T19:05:55;-4.70;99.90
30063;DHT22;16889;67.864;24.990;2024-01-10T19:10:41;-4.70;99.90
30063;DHT22;16889;67.864;24.990;2024-01-10T19:15:27;-4.60;99.90
30063;DHT22;16889;67.864;24.990;2024-01-10T19:20:13;-4.50;99.90
30063;DHT22;16889;67.864;24.990;2024-01-10T19:24:59;-4.50;99.90
30063;DHT22;16889;67.864;24.990;2024-01-10T19:29:45;-4.50;99.90
30063;DHT22;16889;67.864;24.990;2024-01-10T19:34:31;-4.40;99.90
30063;DHT22;16889;67.864;24.990;2024-01-10T19:39:17;-4.50;99.90
30063;DHT22;16889;67.864;24.990;2024-01-10T19:44:03;-4.50;99.90
30063;DHT22;16889;67.864;24.990;2024-01-10T19:48:49;-4.50;99.90
30063;DHT22;16889;67.864;24.990;2024-01-10T19:53:38;-4.50;99.90
30063;DHT22;16889;67.864;24.990;2024-01-10T19:58:24;-4.50;99.90
30063;DHT22;16889;67.864;24.990;2024-01-10T20:03:10;-4.50;99.90
30063;DHT22;16889;67.864;24.990;2024-01-10T20:07:55;-4.50;99.90
30063;DHT22;16889;67.864;24.990;2024-01-10T20:12:41;-4.50;99.90
30063;DHT22;16889;67.864;24.990;2024-01-10T20:17:27;-4.50;99.90
30063;DHT22;16889;67.864;24.990;2024-01-10T20:22:13;-4.50;99.90
30063;DHT22;16889;67.864;24.990;2024-01-10T20:26:59;-4.60;99.90
30063;DHT22;16889;67.864;24.990;2024-01-10T20:31:45;-4.60;99.90
30063;DHT22;16889;67.864;24.990;2024-01-10T20:36:31;-4.60;99.90
30063;DHT22;16889;67.864;24.990;2024-01-10T20:41:19;-4.60;99.90
30063;DHT22;16889;67.864;24.990;2024-01-10T20:46:05;-4.60;99.90
30063;DHT22;16889;67.864;24.990;2024-01-10T20:50:51;-4.60;99.90
30063;DHT22;16889;67.864;24.990;2024-01-10T20:55:41;-4.60;99.90
30063;DHT22;16889;67.864;24.990;2024-01-10T21:00:27;-4.60;99.90
30063;DHT22;16889;67.864;24.990;2024-01-10T21:05:14;-4.70;99.90
30063;DHT22;16889;67.864;24.990;2024-01-10T21:09:59;-4.70;99.90
30063;DHT22;16889;67.864;24.990;2024-01-10T21:14:46;-4.80;99.90
30063;DHT22;16889;67.864;24.990;2024-01-10T21:19:34;-4.90;99.90
30063;DHT22;16889;67.864;24.990;2024-01-10T21:24:20;-5.30;99.90
30063;DHT22;16889;67.864;24.990;2024-01-10T21:29:06;-5.50;99.90
30063;DHT22;16889;67.864;24.990;2024-01-10T21:33:52;-5.70;99.90
30063;DHT22;16889;67.864;24.990;2024-01-10T21:38:38;-5.90;99.90
30063;DHT22;16889;67.864;24.990;2024-01-10T21:43:26;-6.00;99.90
30063;DHT22;16889;67.864;24.990;2024-01-10T21:48:12;-6.10;99.90
30063;DHT22;16889;67.864;24.990;2024-01-10T21:52:59;-6.20;99.90
30063;DHT22;16889;67.864;24.990;2024-01-10T21:57:45;-6.40;99.90
30063;DHT22;16889;67.864;24.990;2024-01-10T22:02:31;-6.60;99.90
30063;DHT22;16889;67.864;24.990;2024-01-10T22:07:17;-6.70;99.90
30063;DHT22;16889;67.864;24.990;2024-01-10T22:12:03;-6.80;99.90
30063;DHT22;16889;67.864;24.990;2024-01-10T22:16:49;-6.90;99.90
30063;DHT22;16889;67.864;24.990;2024-01-10T22:21:35;-7.00;99.90
30063;DHT22;16889;67.864;24.990;2024-01-10T22:26:21;-7.00;99.90
30063;DHT22;16889;67.864;24.990;2024-01-10T22:31:07;-7.10;99.90
30063;DHT22;16889;67.864;24.990;2024-01-10T22:35:53;-7.40;99.90
30063;DHT22;16889;67.864;24.990;2024-01-10T22:40:38;-7.60;99.90
30063;DHT22;16889;67.864;24.990;2024-01-10T22:45:24;-7.90;99.90
30063;DHT22;16889;67.864;24.990;2024-01-10T22:50:11;-8.40;99.90
30063;DHT22;16889;67.864;24.990;2024-01-10T22:54:57;-8.60;99.90
30063;DHT22;16889;67.864;24.990;2024-01-10T22:59:43;-8.70;99.90
30063;DHT22;16889;67.864;24.990;2024-01-10T23:04:29;-9.20;99.90
30063;DHT22;16889;67.864;24.990;2024-01-10T23:09:15;-9.80;99.90
30063;DHT22;16889;67.864;24.990;2024-01-10T23:14:01;-9.90;99.90
30063;DHT22;16889;67.864;24.990;2024-01-10T23:18:47;-10.10;99.90
30063;DHT22;16889;67.864;24.990;2024-01-10T23:23:33;-10.20;99.90
30063;DHT22;16889;67.864;24.990;2024-01-10T23:28:19;-10.50;99.90
30063;DHT22;16889;67.864;24.990;2024-01-10T23:33:05;-10.90;99.90
30063;DHT22;16889;67.864;24.990;2024-01-10T23:37:52;-11.20;99.90
30063;DHT22;16889;67.864;24.990;2024-01-10T23:42:37;-11.50;99.90
30063;DHT22;16889;67.864;24.990;2024-01-10T23:47:23;-11.10;99.90
30063;DHT22;16889;67.864;24.990;2024-01-10T23:52:09;-10.60;99.90
30063;DHT22;16889;67.864;24.990;2024-01-10T23:56:55;-10.30;99.90
